sensor_id;sensor_type;location;lat;lon;timestamp;temperature;humidity
71206;SHT31;58935;54.498;18.544;2022-10-16T00:02:05;13.81;86.31
71206;SHT31;58935;54.498;18.544;2022-10-16T00:04:30;13.81;86.27
71206;SHT31;58935;54.498;18.544;2022-10-16T00:06:56;13.81;86.21
71206;SHT31;58935;54.498;18.544;2022-10-16T00:09:21;13.80;86.15
71206;SHT31;58935;54.498;18.544;2022-10-16T00:11:46;13.80;86.12
71206;SHT31;58935;54.498;18.544;2022-10-16T00:14:13;13.81;86.11
71206;SHT31;58935;54.498;18.544;2022-10-16T00:16:39;13.80;86.26
71206;SHT31;58935;54.498;18.544;2022-10-16T00:19:05;13.83;86.43
71206;SHT31;58935;54.498;18.544;2022-10-16T00:21:31;13.85;86.68
71206;SHT31;58935;54.498;18.544;2022-10-16T00:23:58;13.88;86.64
71206;SHT31;58935;54.498;18.544;2022-10-16T00:26:26;13.91;86.69
71206;SHT31;58935;54.498;18.544;2022-10-16T00:28:52;13.94;86.81
71206;SHT31;58935;54.498;18.544;2022-10-16T00:31:18;13.96;86.83
71206;SHT31;58935;54.498;18.544;2022-10-16T00:33:45;13.99;86.90
71206;SHT31;58935;54.498;18.544;2022-10-16T00:36:12;14.02;86.89
71206;SHT31;58935;54.498;18.544;2022-10-16T00:38:38;14.06;86.90
71206;SHT31;58935;54.498;18.544;2022-10-16T00:41:04;14.11;86.88
71206;SHT31;58935;54.498;18.544;2022-10-16T00:43:34;14.13;86.89
71206;SHT31;58935;54.498;18.544;2022-10-16T00:46:03;14.15;86.94
71206;SHT31;58935;54.498;18.544;2022-10-16T00:48:33;14.17;86.91
71206;SHT31;58935;54.498;18.544;2022-10-16T00:50:59;14.19;86.97
71206;SHT31;58935;54.498;18.544;2022-10-16T00:53:24;14.20;87.01
71206;SHT31;58935;54.498;18.544;2022-10-16T00:55:50;14.22;87.00
71206;SHT31;58935;54.498;18.544;2022-10-16T00:58:16;14.24;86.97
71206;SHT31;58935;54.498;18.544;2022-10-16T01:00:41;14.26;86.92
71206;SHT31;58935;54.498;18.544;2022-10-16T01:05:39;14.32;86.89
71206;SHT31;58935;54.498;18.544;2022-10-16T01:08:12;14.34;86.89
71206;SHT31;58935;54.498;18.544;2022-10-16T01:13:21;14.37;86.78
71206;SHT31;58935;54.498;18.544;2022-10-16T01:15:54;14.39;86.69
71206;SHT31;58935;54.498;18.544;2022-10-16T01:18:43;14.41;86.61
71206;SHT31;58935;54.498;18.544;2022-10-16T01:23:50;14.43;86.40
71206;SHT31;58935;54.498;18.544;2022-10-16T01:26:27;14.46;86.30
71206;SHT31;58935;54.498;18.544;2022-10-16T01:29:05;14.46;86.21
71206;SHT31;58935;54.498;18.544;2022-10-16T01:31:40;14.48;86.14
71206;SHT31;58935;54.498;18.544;2022-10-16T01:34:15;14.50;86.11
71206;SHT31;58935;54.498;18.544;2022-10-16T01:36:46;14.53;86.09
71206;SHT31;58935;54.498;18.544;2022-10-16T01:39:16;14.56;86.02
71206;SHT31;58935;54.498;18.544;2022-10-16T01:41:45;14.57;86.02
71206;SHT31;58935;54.498;18.544;2022-10-16T01:44:17;14.59;86.00
71206;SHT31;58935;54.498;18.544;2022-10-16T01:46:47;14.61;86.00
71206;SHT31;58935;54.498;18.544;2022-10-16T01:49:15;14.63;85.95
71206;SHT31;58935;54.498;18.544;2022-10-16T01:51:43;14.65;85.87
71206;SHT31;58935;54.498;18.544;2022-10-16T01:54:11;14.67;85.78
71206;SHT31;58935;54.498;18.544;2022-10-16T01:56:38;14.69;85.72
71206;SHT31;58935;54.498;18.544;2022-10-16T01:59:09;14.72;85.67
71206;SHT31;58935;54.498;18.544;2022-10-16T02:01:36;14.75;85.57
71206;SHT31;58935;54.498;18.544;2022-10-16T02:04:09;14.76;85.50
71206;SHT31;58935;54.498;18.544;2022-10-16T02:06:40;14.79;85.41
71206;SHT31;58935;54.498;18.544;2022-10-16T02:09:05;14.81;85.33
71206;SHT31;58935;54.498;18.544;2022-10-16T02:11:31;14.83;85.25
71206;SHT31;58935;54.498;18.544;2022-10-16T02:14:00;14.85;85.16
71206;SHT31;58935;54.498;18.544;2022-10-16T02:18:58;14.89;84.97
71206;SHT31;58935;54.498;18.544;2022-10-16T02:21:25;14.91;84.85
71206;SHT31;58935;54.498;18.544;2022-10-16T02:23:57;14.92;84.69
71206;SHT31;58935;54.498;18.544;2022-10-16T02:26:28;14.91;84.47
71206;SHT31;58935;54.498;18.544;2022-10-16T02:29:01;14.90;84.35
71206;SHT31;58935;54.498;18.544;2022-10-16T02:31:31;14.86;84.23
71206;SHT31;58935;54.498;18.544;2022-10-16T02:34:00;14.83;84.14
71206;SHT31;58935;54.498;18.544;2022-10-16T02:36:27;14.78;84.09
71206;SHT31;58935;54.498;18.544;2022-10-16T02:38:54;14.75;84.10
71206;SHT31;58935;54.498;18.544;2022-10-16T02:41:20;14.73;84.07
71206;SHT31;58935;54.498;18.544;2022-10-16T02:43:47;14.70;84.00
71206;SHT31;58935;54.498;18.544;2022-10-16T02:46:12;14.67;84.04
71206;SHT31;58935;54.498;18.544;2022-10-16T02:48:37;14.64;84.06
71206;SHT31;58935;54.498;18.544;2022-10-16T02:51:04;14.62;84.09
71206;SHT31;58935;54.498;18.544;2022-10-16T02:53:30;14.61;84.14
71206;SHT31;58935;54.498;18.544;2022-10-16T02:55:55;14.58;84.10
71206;SHT31;58935;54.498;18.544;2022-10-16T02:58:21;14.56;84.10
71206;SHT31;58935;54.498;18.544;2022-10-16T03:00:46;14.53;84.11
71206;SHT31;58935;54.498;18.544;2022-10-16T03:03:11;14.51;84.20
71206;SHT31;58935;54.498;18.544;2022-10-16T03:05:37;14.50;84.20
71206;SHT31;58935;54.498;18.544;2022-10-16T03:08:02;14.47;84.22
71206;SHT31;58935;54.498;18.544;2022-10-16T03:10:27;14.45;84.33
71206;SHT31;58935;54.498;18.544;2022-10-16T03:12:52;14.43;84.40
71206;SHT31;58935;54.498;18.544;2022-10-16T03:15:18;14.41;84.41
71206;SHT31;58935;54.498;18.544;2022-10-16T03:17:43;14.39;84.48
71206;SHT31;58935;54.498;18.544;2022-10-16T03:20:08;14.39;84.53
71206;SHT31;58935;54.498;18.544;2022-10-16T03:22:34;14.38;84.60
71206;SHT31;58935;54.498;18.544;2022-10-16T03:24:59;14.37;84.62
71206;SHT31;58935;54.498;18.544;2022-10-16T03:27:25;14.38;84.70
71206;SHT31;58935;54.498;18.544;2022-10-16T03:29:50;14.37;84.79
71206;SHT31;58935;54.498;18.544;2022-10-16T03:32:15;14.37;84.90
71206;SHT31;58935;54.498;18.544;2022-10-16T03:34:40;14.39;85.05
71206;SHT31;58935;54.498;18.544;2022-10-16T03:37:06;14.39;85.10
71206;SHT31;58935;54.498;18.544;2022-10-16T03:39:31;14.41;85.16
71206;SHT31;58935;54.498;18.544;2022-10-16T03:41:56;14.43;85.15
71206;SHT31;58935;54.498;18.544;2022-10-16T03:44:22;14.45;85.16
71206;SHT31;58935;54.498;18.544;2022-10-16T03:46:47;14.47;85.20
71206;SHT31;58935;54.498;18.544;2022-10-16T03:49:12;14.48;85.20
71206;SHT31;58935;54.498;18.544;2022-10-16T03:51:37;14.52;85.19
71206;SHT31;58935;54.498;18.544;2022-10-16T03:54:03;14.55;85.19
71206;SHT31;58935;54.498;18.544;2022-10-16T03:56:28;14.57;85.20
71206;SHT31;58935;54.498;18.544;2022-10-16T03:58:53;14.59;85.20
71206;SHT31;58935;54.498;18.544;2022-10-16T04:01:18;14.62;85.18
71206;SHT31;58935;54.498;18.544;2022-10-16T04:03:44;14.63;85.13
71206;SHT31;58935;54.498;18.544;2022-10-16T04:06:09;14.65;85.14
71206;SHT31;58935;54.498;18.544;2022-10-16T04:08:34;14.70;85.13
71206;SHT31;58935;54.498;18.544;2022-10-16T04:11:01;14.70;85.10
71206;SHT31;58935;54.498;18.544;2022-10-16T04:13:27;14.74;85.17
71206;SHT31;58935;54.498;18.544;2022-10-16T04:15:53;14.77;85.10
71206;SHT31;58935;54.498;18.544;2022-10-16T04:18:18;14.80;85.10
71206;SHT31;58935;54.498;18.544;2022-10-16T04:20:43;14.84;85.03
71206;SHT31;58935;54.498;18.544;2022-10-16T04:23:08;14.85;84.92
71206;SHT31;58935;54.498;18.544;2022-10-16T04:25:34;14.86;84.91
71206;SHT31;58935;54.498;18.544;2022-10-16T04:27:59;14.85;84.90
71206;SHT31;58935;54.498;18.544;2022-10-16T04:30:24;14.85;84.96
71206;SHT31;58935;54.498;18.544;2022-10-16T04:32:50;14.87;85.00
71206;SHT31;58935;54.498;18.544;2022-10-16T04:35:17;14.85;85.00
71206;SHT31;58935;54.498;18.544;2022-10-16T04:37:43;14.87;85.00
71206;SHT31;58935;54.498;18.544;2022-10-16T04:40:08;14.87;85.00
71206;SHT31;58935;54.498;18.544;2022-10-16T04:42:34;14.87;85.00
71206;SHT31;58935;54.498;18.544;2022-10-16T04:44:59;14.87;85.00
71206;SHT31;58935;54.498;18.544;2022-10-16T04:47:24;14.87;85.08
71206;SHT31;58935;54.498;18.544;2022-10-16T04:49:49;14.87;85.11
71206;SHT31;58935;54.498;18.544;2022-10-16T04:52:15;14.89;85.10
71206;SHT31;58935;54.498;18.544;2022-10-16T04:54:40;14.89;85.16
71206;SHT31;58935;54.498;18.544;2022-10-16T04:57:05;14.87;85.18
71206;SHT31;58935;54.498;18.544;2022-10-16T04:59:31;14.89;85.20
71206;SHT31;58935;54.498;18.544;2022-10-16T05:01:56;14.88;85.20
71206;SHT31;58935;54.498;18.544;2022-10-16T05:04:21;14.90;85.20
71206;SHT31;58935;54.498;18.544;2022-10-16T05:06:47;14.90;85.20
71206;SHT31;58935;54.498;18.544;2022-10-16T05:09:12;14.91;85.26
71206;SHT31;58935;54.498;18.544;2022-10-16T05:11:37;14.90;85.28
71206;SHT31;58935;54.498;18.544;2022-10-16T05:14:03;14.90;85.32
71206;SHT31;58935;54.498;18.544;2022-10-16T05:16:28;14.89;85.39
71206;SHT31;58935;54.498;18.544;2022-10-16T05:18:53;14.89;85.46
71206;SHT31;58935;54.498;18.544;2022-10-16T05:21:19;14.90;85.44
71206;SHT31;58935;54.498;18.544;2022-10-16T05:23:44;14.90;85.44
71206;SHT31;58935;54.498;18.544;2022-10-16T05:26:10;14.88;85.50
71206;SHT31;58935;54.498;18.544;2022-10-16T05:28:35;14.89;85.50
71206;SHT31;58935;54.498;18.544;2022-10-16T05:33:31;14.89;85.53
71206;SHT31;58935;54.498;18.544;2022-10-16T05:35:56;14.89;85.56
71206;SHT31;58935;54.498;18.544;2022-10-16T05:38:21;14.90;85.61
71206;SHT31;58935;54.498;18.544;2022-10-16T05:43:16;14.94;85.70
71206;SHT31;58935;54.498;18.544;2022-10-16T05:45:41;14.96;85.72
71206;SHT31;58935;54.498;18.544;2022-10-16T05:48:06;14.98;85.66
71206;SHT31;58935;54.498;18.544;2022-10-16T05:50:32;14.99;85.58
71206;SHT31;58935;54.498;18.544;2022-10-16T05:52:57;15.01;85.50
71206;SHT31;58935;54.498;18.544;2022-10-16T05:55:22;15.03;85.51
71206;SHT31;58935;54.498;18.544;2022-10-16T05:57:48;15.05;85.50
71206;SHT31;58935;54.498;18.544;2022-10-16T06:00:13;15.07;85.46
71206;SHT31;58935;54.498;18.544;2022-10-16T06:02:38;15.09;85.49
71206;SHT31;58935;54.498;18.544;2022-10-16T06:05:04;15.11;85.40
71206;SHT31;58935;54.498;18.544;2022-10-16T06:07:33;15.12;85.48
71206;SHT31;58935;54.498;18.544;2022-10-16T06:09:59;15.13;85.55
71206;SHT31;58935;54.498;18.544;2022-10-16T06:12:24;15.14;85.62
71206;SHT31;58935;54.498;18.544;2022-10-16T06:14:51;15.13;85.73
71206;SHT31;58935;54.498;18.544;2022-10-16T06:17:16;15.13;85.74
71206;SHT31;58935;54.498;18.544;2022-10-16T06:19:42;15.13;85.93
71206;SHT31;58935;54.498;18.544;2022-10-16T06:22:07;15.10;86.09
71206;SHT31;58935;54.498;18.544;2022-10-16T06:24:32;15.08;86.22
71206;SHT31;58935;54.498;18.544;2022-10-16T06:26:57;15.05;86.35
71206;SHT31;58935;54.498;18.544;2022-10-16T06:29:23;15.03;86.46
71206;SHT31;58935;54.498;18.544;2022-10-16T06:31:48;14.99;86.62
71206;SHT31;58935;54.498;18.544;2022-10-16T06:34:13;14.98;86.79
71206;SHT31;58935;54.498;18.544;2022-10-16T06:36:39;14.96;86.84
71206;SHT31;58935;54.498;18.544;2022-10-16T06:39:05;14.94;86.89
71206;SHT31;58935;54.498;18.544;2022-10-16T06:41:32;14.94;86.92
71206;SHT31;58935;54.498;18.544;2022-10-16T06:43:58;14.93;87.00
71206;SHT31;58935;54.498;18.544;2022-10-16T06:46:24;14.93;87.10
71206;SHT31;58935;54.498;18.544;2022-10-16T06:48:50;14.93;87.12
71206;SHT31;58935;54.498;18.544;2022-10-16T06:51:17;14.93;87.17
71206;SHT31;58935;54.498;18.544;2022-10-16T06:53:45;14.93;87.18
71206;SHT31;58935;54.498;18.544;2022-10-16T06:56:15;14.94;87.18
71206;SHT31;58935;54.498;18.544;2022-10-16T06:58:42;14.96;87.16
71206;SHT31;58935;54.498;18.544;2022-10-16T07:01:08;14.97;87.17
71206;SHT31;58935;54.498;18.544;2022-10-16T07:03:36;14.99;87.13
71206;SHT31;58935;54.498;18.544;2022-10-16T07:06:03;15.00;87.06
71206;SHT31;58935;54.498;18.544;2022-10-16T07:08:31;15.02;87.04
71206;SHT31;58935;54.498;18.544;2022-10-16T07:10:59;15.04;87.02
71206;SHT31;58935;54.498;18.544;2022-10-16T07:13:25;15.06;86.98
71206;SHT31;58935;54.498;18.544;2022-10-16T07:15:50;15.09;86.90
71206;SHT31;58935;54.498;18.544;2022-10-16T07:18:16;15.10;86.88
71206;SHT31;58935;54.498;18.544;2022-10-16T07:20:41;15.12;86.82
71206;SHT31;58935;54.498;18.544;2022-10-16T07:23:06;15.13;86.80
71206;SHT31;58935;54.498;18.544;2022-10-16T07:25:31;15.15;86.80
71206;SHT31;58935;54.498;18.544;2022-10-16T07:27:57;15.16;86.80
71206;SHT31;58935;54.498;18.544;2022-10-16T07:30:22;15.18;86.78
71206;SHT31;58935;54.498;18.544;2022-10-16T07:32:47;15.20;86.80
71206;SHT31;58935;54.498;18.544;2022-10-16T07:35:13;15.23;86.74
71206;SHT31;58935;54.498;18.544;2022-10-16T07:37:38;15.25;86.71
71206;SHT31;58935;54.498;18.544;2022-10-16T07:40:03;15.28;86.71
71206;SHT31;58935;54.498;18.544;2022-10-16T07:42:29;15.31;86.68
71206;SHT31;58935;54.498;18.544;2022-10-16T07:44:54;15.34;86.65
71206;SHT31;58935;54.498;18.544;2022-10-16T07:47:20;15.37;86.60
71206;SHT31;58935;54.498;18.544;2022-10-16T07:49:45;15.40;86.58
71206;SHT31;58935;54.498;18.544;2022-10-16T07:52:10;15.45;86.44
71206;SHT31;58935;54.498;18.544;2022-10-16T07:54:36;15.47;86.34
71206;SHT31;58935;54.498;18.544;2022-10-16T07:57:01;15.51;86.29
71206;SHT31;58935;54.498;18.544;2022-10-16T07:59:26;15.56;86.27
71206;SHT31;58935;54.498;18.544;2022-10-16T08:01:51;15.60;86.17
71206;SHT31;58935;54.498;18.544;2022-10-16T08:04:17;15.66;86.17
71206;SHT31;58935;54.498;18.544;2022-10-16T08:06:42;15.71;86.07
71206;SHT31;58935;54.498;18.544;2022-10-16T08:09:08;15.74;85.86
71206;SHT31;58935;54.498;18.544;2022-10-16T08:11:33;15.79;85.85
71206;SHT31;58935;54.498;18.544;2022-10-16T08:13:59;15.81;85.77
71206;SHT31;58935;54.498;18.544;2022-10-16T08:16:24;15.84;85.69
71206;SHT31;58935;54.498;18.544;2022-10-16T08:18:50;15.83;85.62
71206;SHT31;58935;54.498;18.544;2022-10-16T08:21:17;15.85;85.57
71206;SHT31;58935;54.498;18.544;2022-10-16T08:23:43;15.84;85.39
71206;SHT31;58935;54.498;18.544;2022-10-16T08:26:10;15.85;85.43
71206;SHT31;58935;54.498;18.544;2022-10-16T08:28:37;15.85;85.37
71206;SHT31;58935;54.498;18.544;2022-10-16T08:31:04;15.86;85.42
71206;SHT31;58935;54.498;18.544;2022-10-16T08:33:31;15.89;85.46
71206;SHT31;58935;54.498;18.544;2022-10-16T08:35:56;15.92;85.41
71206;SHT31;58935;54.498;18.544;2022-10-16T08:38:21;15.97;85.44
71206;SHT31;58935;54.498;18.544;2022-10-16T08:40:47;16.00;85.41
71206;SHT31;58935;54.498;18.544;2022-10-16T08:45:51;16.06;85.25
71206;SHT31;58935;54.498;18.544;2022-10-16T08:51:04;16.17;85.19
71206;SHT31;58935;54.498;18.544;2022-10-16T08:56:03;16.29;84.89
71206;SHT31;58935;54.498;18.544;2022-10-16T08:58:29;16.33;84.56
71206;SHT31;58935;54.498;18.544;2022-10-16T09:00:57;16.40;84.40
71206;SHT31;58935;54.498;18.544;2022-10-16T09:13:58;16.53;83.61
71206;SHT31;58935;54.498;18.544;2022-10-16T09:16:34;16.57;83.58
71206;SHT31;58935;54.498;18.544;2022-10-16T09:21:51;16.59;83.32
71206;SHT31;58935;54.498;18.544;2022-10-16T09:24:19;16.59;83.18
71206;SHT31;58935;54.498;18.544;2022-10-16T09:26:49;16.57;83.02
71206;SHT31;58935;54.498;18.544;2022-10-16T09:29:15;16.57;83.05
71206;SHT31;58935;54.498;18.544;2022-10-16T09:31:42;16.60;83.12
71206;SHT31;58935;54.498;18.544;2022-10-16T09:36:46;16.74;83.10
71206;SHT31;58935;54.498;18.544;2022-10-16T09:39:12;16.81;83.01
71206;SHT31;58935;54.498;18.544;2022-10-16T09:41:38;16.82;82.89
71206;SHT31;58935;54.498;18.544;2022-10-16T09:44:15;16.83;82.80
71206;SHT31;58935;54.498;18.544;2022-10-16T09:46:46;16.83;82.79
71206;SHT31;58935;54.498;18.544;2022-10-16T09:49:26;16.84;82.64
71206;SHT31;58935;54.498;18.544;2022-10-16T09:54:23;16.76;82.43
71206;SHT31;58935;54.498;18.544;2022-10-16T09:56:48;16.74;82.60
71206;SHT31;58935;54.498;18.544;2022-10-16T09:59:18;16.69;82.45
71206;SHT31;58935;54.498;18.544;2022-10-16T10:01:46;16.64;82.57
71206;SHT31;58935;54.498;18.544;2022-10-16T10:04:13;16.62;82.70
71206;SHT31;58935;54.498;18.544;2022-10-16T10:06:41;16.62;82.80
71206;SHT31;58935;54.498;18.544;2022-10-16T10:11:44;16.65;82.98
71206;SHT31;58935;54.498;18.544;2022-10-16T10:16:43;16.71;82.97
71206;SHT31;58935;54.498;18.544;2022-10-16T10:21:39;16.76;82.72
71206;SHT31;58935;54.498;18.544;2022-10-16T10:24:09;16.77;82.72
71206;SHT31;58935;54.498;18.544;2022-10-16T10:26:35;16.78;82.80
71206;SHT31;58935;54.498;18.544;2022-10-16T10:29:04;16.81;82.72
71206;SHT31;58935;54.498;18.544;2022-10-16T10:34:26;16.86;82.45
71206;SHT31;58935;54.498;18.544;2022-10-16T10:37:37;16.80;82.48
71206;SHT31;58935;54.498;18.544;2022-10-16T10:39:56;16.79;82.68
71206;SHT31;58935;54.498;18.544;2022-10-16T10:42:36;16.81;82.61
71206;SHT31;58935;54.498;18.544;2022-10-16T10:47:47;16.90;82.65
71206;SHT31;58935;54.498;18.544;2022-10-16T10:52:55;16.98;82.44
71206;SHT31;58935;54.498;18.544;2022-10-16T11:05:40;17.31;81.62
71206;SHT31;58935;54.498;18.544;2022-10-16T11:08:10;17.39;81.41
71206;SHT31;58935;54.498;18.544;2022-10-16T11:10:45;17.50;81.12
71206;SHT31;58935;54.498;18.544;2022-10-16T11:13:19;17.60;80.59
71206;SHT31;58935;54.498;18.544;2022-10-16T11:15:48;17.72;80.56
71206;SHT31;58935;54.498;18.544;2022-10-16T11:18:19;17.81;80.24
71206;SHT31;58935;54.498;18.544;2022-10-16T11:20:52;17.91;79.97
71206;SHT31;58935;54.498;18.544;2022-10-16T11:23:30;18.01;79.60
71206;SHT31;58935;54.498;18.544;2022-10-16T11:26:04;18.11;79.07
71206;SHT31;58935;54.498;18.544;2022-10-16T11:28:36;18.22;78.47
71206;SHT31;58935;54.498;18.544;2022-10-16T11:36:19;18.37;77.46
71206;SHT31;58935;54.498;18.544;2022-10-16T11:38:52;18.38;77.22
71206;SHT31;58935;54.498;18.544;2022-10-16T11:41:27;18.36;76.28
71206;SHT31;58935;54.498;18.544;2022-10-16T11:46:34;18.34;76.67
71206;SHT31;58935;54.498;18.544;2022-10-16T11:49:06;18.38;76.48
71206;SHT31;58935;54.498;18.544;2022-10-16T11:51:38;18.42;75.78
71206;SHT31;58935;54.498;18.544;2022-10-16T11:56:38;18.50;75.33
71206;SHT31;58935;54.498;18.544;2022-10-16T11:59:10;18.54;75.49
71206;SHT31;58935;54.498;18.544;2022-10-16T12:01:43;18.58;74.71
71206;SHT31;58935;54.498;18.544;2022-10-16T12:04:24;18.59;74.41
71206;SHT31;58935;54.498;18.544;2022-10-16T12:09:30;18.56;73.06
71206;SHT31;58935;54.498;18.544;2022-10-16T12:11:57;18.56;72.92
71206;SHT31;58935;54.498;18.544;2022-10-16T12:22:18;18.61;72.19
71206;SHT31;58935;54.498;18.544;2022-10-16T12:24:44;18.62;71.96
71206;SHT31;58935;54.498;18.544;2022-10-16T12:29:41;18.71;71.83
71206;SHT31;58935;54.498;18.544;2022-10-16T12:34:42;18.85;71.52
71206;SHT31;58935;54.498;18.544;2022-10-16T12:37:11;18.91;70.90
71206;SHT31;58935;54.498;18.544;2022-10-16T12:39:44;19.00;71.21
71206;SHT31;58935;54.498;18.544;2022-10-16T12:44:42;19.15;70.39
71206;SHT31;58935;54.498;18.544;2022-10-16T12:47:18;19.18;70.33
71206;SHT31;58935;54.498;18.544;2022-10-16T12:49:48;19.21;69.62
71206;SHT31;58935;54.498;18.544;2022-10-16T12:54:46;19.26;69.55
71206;SHT31;58935;54.498;18.544;2022-10-16T12:57:24;19.33;69.78
71206;SHT31;58935;54.498;18.544;2022-10-16T13:02:39;19.41;69.07
71206;SHT31;58935;54.498;18.544;2022-10-16T13:05:14;19.35;68.60
71206;SHT31;58935;54.498;18.544;2022-10-16T13:08:09;19.31;68.17
71206;SHT31;58935;54.498;18.544;2022-10-16T13:13:26;19.21;68.24
71206;SHT31;58935;54.498;18.544;2022-10-16T13:16:07;19.17;68.55
71206;SHT31;58935;54.498;18.544;2022-10-16T13:26:22;18.98;67.92
71206;SHT31;58935;54.498;18.544;2022-10-16T13:28:59;18.94;68.71
71206;SHT31;58935;54.498;18.544;2022-10-16T13:31:26;18.92;68.69
71206;SHT31;58935;54.498;18.544;2022-10-16T13:33:52;18.91;69.07
71206;SHT31;58935;54.498;18.544;2022-10-16T13:36:22;18.88;68.58
71206;SHT31;58935;54.498;18.544;2022-10-16T13:41:21;18.82;69.12
71206;SHT31;58935;54.498;18.544;2022-10-16T13:43:49;18.79;68.86
71206;SHT31;58935;54.498;18.544;2022-10-16T13:46:18;18.74;68.92
71206;SHT31;58935;54.498;18.544;2022-10-16T13:48:55;18.67;69.14
71206;SHT31;58935;54.498;18.544;2022-10-16T13:51:23;18.60;69.49
71206;SHT31;58935;54.498;18.544;2022-10-16T13:53:48;18.56;69.78
71206;SHT31;58935;54.498;18.544;2022-10-16T13:56:16;18.53;69.80
71206;SHT31;58935;54.498;18.544;2022-10-16T13:58:44;18.50;70.11
71206;SHT31;58935;54.498;18.544;2022-10-16T14:03:41;18.44;70.41
71206;SHT31;58935;54.498;18.544;2022-10-16T14:06:11;18.45;70.30
71206;SHT31;58935;54.498;18.544;2022-10-16T14:08:40;18.43;70.23
71206;SHT31;58935;54.498;18.544;2022-10-16T14:11:08;18.43;70.42
71206;SHT31;58935;54.498;18.544;2022-10-16T14:13:36;18.43;70.54
71206;SHT31;58935;54.498;18.544;2022-10-16T14:16:05;18.44;70.62
71206;SHT31;58935;54.498;18.544;2022-10-16T14:18:33;18.45;71.02
71206;SHT31;58935;54.498;18.544;2022-10-16T14:21:02;18.50;71.18
71206;SHT31;58935;54.498;18.544;2022-10-16T14:23:30;18.53;71.01
71206;SHT31;58935;54.498;18.544;2022-10-16T14:28:31;18.63;70.83
71206;SHT31;58935;54.498;18.544;2022-10-16T14:30:58;18.66;70.49
71206;SHT31;58935;54.498;18.544;2022-10-16T14:33:31;18.63;70.02
71206;SHT31;58935;54.498;18.544;2022-10-16T14:38:30;18.53;70.27
71206;SHT31;58935;54.498;18.544;2022-10-16T14:40:57;18.46;70.26
71206;SHT31;58935;54.498;18.544;2022-10-16T14:43:29;18.39;70.61
71206;SHT31;58935;54.498;18.544;2022-10-16T14:45:57;18.33;70.85
71206;SHT31;58935;54.498;18.544;2022-10-16T14:48:23;18.29;71.17
71206;SHT31;58935;54.498;18.544;2022-10-16T14:50:49;18.22;71.31
71206;SHT31;58935;54.498;18.544;2022-10-16T14:53:14;18.15;71.27
71206;SHT31;58935;54.498;18.544;2022-10-16T14:55:40;18.07;71.50
71206;SHT31;58935;54.498;18.544;2022-10-16T14:58:09;17.99;71.76
71206;SHT31;58935;54.498;18.544;2022-10-16T15:00:40;17.95;72.09
71206;SHT31;58935;54.498;18.544;2022-10-16T15:03:06;17.91;72.38
71206;SHT31;58935;54.498;18.544;2022-10-16T15:05:31;17.87;72.53
71206;SHT31;58935;54.498;18.544;2022-10-16T15:07:57;17.84;72.72
71206;SHT31;58935;54.498;18.544;2022-10-16T15:10:24;17.77;72.84
71206;SHT31;58935;54.498;18.544;2022-10-16T15:12:51;17.70;73.01
71206;SHT31;58935;54.498;18.544;2022-10-16T15:17:50;17.55;73.48
71206;SHT31;58935;54.498;18.544;2022-10-16T15:20:18;17.45;73.75
71206;SHT31;58935;54.498;18.544;2022-10-16T15:22:44;17.38;73.99
71206;SHT31;58935;54.498;18.544;2022-10-16T15:27:41;17.27;74.52
71206;SHT31;58935;54.498;18.544;2022-10-16T15:30:06;17.22;74.75
71206;SHT31;58935;54.498;18.544;2022-10-16T15:32:32;17.18;74.98
71206;SHT31;58935;54.498;18.544;2022-10-16T15:34:57;17.13;75.17
71206;SHT31;58935;54.498;18.544;2022-10-16T15:37:22;17.07;75.34
71206;SHT31;58935;54.498;18.544;2022-10-16T15:39:49;17.01;75.51
71206;SHT31;58935;54.498;18.544;2022-10-16T15:42:15;16.96;75.71
71206;SHT31;58935;54.498;18.544;2022-10-16T15:44:40;16.89;75.90
71206;SHT31;58935;54.498;18.544;2022-10-16T15:47:05;16.86;76.05
71206;SHT31;58935;54.498;18.544;2022-10-16T15:49:31;16.80;76.24
71206;SHT31;58935;54.498;18.544;2022-10-16T15:51:56;16.75;76.34
71206;SHT31;58935;54.498;18.544;2022-10-16T15:54:22;16.68;76.51
71206;SHT31;58935;54.498;18.544;2022-10-16T15:56:48;16.61;76.70
71206;SHT31;58935;54.498;18.544;2022-10-16T15:59:13;16.55;76.86
71206;SHT31;58935;54.498;18.544;2022-10-16T16:01:39;16.51;76.97
71206;SHT31;58935;54.498;18.544;2022-10-16T16:04:04;16.46;77.13
71206;SHT31;58935;54.498;18.544;2022-10-16T16:06:29;16.39;77.27
71206;SHT31;58935;54.498;18.544;2022-10-16T16:08:55;16.33;77.34
71206;SHT31;58935;54.498;18.544;2022-10-16T16:11:20;16.27;77.51
71206;SHT31;58935;54.498;18.544;2022-10-16T16:13:48;16.20;77.72
71206;SHT31;58935;54.498;18.544;2022-10-16T16:16:14;16.14;77.87
71206;SHT31;58935;54.498;18.544;2022-10-16T16:18:41;16.09;77.95
71206;SHT31;58935;54.498;18.544;2022-10-16T16:21:06;16.02;78.02
71206;SHT31;58935;54.498;18.544;2022-10-16T16:23:32;15.96;78.17
71206;SHT31;58935;54.498;18.544;2022-10-16T16:26:02;15.89;78.31
71206;SHT31;58935;54.498;18.544;2022-10-16T16:28:29;15.82;78.47
71206;SHT31;58935;54.498;18.544;2022-10-16T16:30:55;15.76;78.61
71206;SHT31;58935;54.498;18.544;2022-10-16T16:33:20;15.70;78.83
71206;SHT31;58935;54.498;18.544;2022-10-16T16:35:45;15.66;78.97
71206;SHT31;58935;54.498;18.544;2022-10-16T16:38:10;15.62;79.08
71206;SHT31;58935;54.498;18.544;2022-10-16T16:40:36;15.59;79.32
71206;SHT31;58935;54.498;18.544;2022-10-16T16:43:01;15.55;79.47
71206;SHT31;58935;54.498;18.544;2022-10-16T16:45:27;15.52;79.52
71206;SHT31;58935;54.498;18.544;2022-10-16T16:47:52;15.48;79.61
71206;SHT31;58935;54.498;18.544;2022-10-16T16:50:18;15.46;79.86
71206;SHT31;58935;54.498;18.544;2022-10-16T16:52:43;15.45;79.99
71206;SHT31;58935;54.498;18.544;2022-10-16T16:55:08;15.43;80.00
71206;SHT31;58935;54.498;18.544;2022-10-16T16:57:33;15.41;79.99
71206;SHT31;58935;54.498;18.544;2022-10-16T16:59:59;15.39;80.08
71206;SHT31;58935;54.498;18.544;2022-10-16T17:02:24;15.38;80.08
71206;SHT31;58935;54.498;18.544;2022-10-16T17:04:50;15.37;80.14
71206;SHT31;58935;54.498;18.544;2022-10-16T17:07:15;15.37;80.21
71206;SHT31;58935;54.498;18.544;2022-10-16T17:09:41;15.37;80.28
71206;SHT31;58935;54.498;18.544;2022-10-16T17:12:06;15.36;80.23
71206;SHT31;58935;54.498;18.544;2022-10-16T17:14:31;15.36;80.21
71206;SHT31;58935;54.498;18.544;2022-10-16T17:16:57;15.35;80.32
71206;SHT31;58935;54.498;18.544;2022-10-16T17:19:22;15.35;80.36
71206;SHT31;58935;54.498;18.544;2022-10-16T17:21:48;15.33;80.30
71206;SHT31;58935;54.498;18.544;2022-10-16T17:24:14;15.28;80.33